Big Cabin, Oklahoma
Current Conditions -  °F | °C
As of 4:15 PM on Sunday 23 Nov 2014 (Local Time) from KGCM Reporting Station
Scattered Clouds Scattered Clouds  
Wind Chill: 16°   Ceiling: Unl
Heat Index: 16°   Visibility: 10mi
Dew Point: 12°   Wind: 0mph
Humidity: 77%   Direction: NA
Pressure: 29.33"   Gusts: NA
Location:  36.54°N, 95.22°W
Report Text: KGCM 232215Z AUTO 00000KT 10SM SCT045 16/12 A2933 RMK AO2
Loading
Personal Weather Stations






























Interactive Weather Map New forecast layout! Learn more

10-Day Weather Forecast

Advertisements
Track Severe Weather on mobile